PWSweather.com
Personal Weather Stations
Station Observations
PRATO
PratoIT 59100

PratoIT 59100

Lat: 43.8956799, Lon: 11.0845155

Elevation: 164

Station Type: Davis Vantage Vue

http://www.meteoprato.it

High Low Average
Temperature 67.5°F19.7°C 56.3°F13.5°C 60.8°F16.0°C
Dew Point 60.3°F15.7°C 47.9°F8.8°C 54.8°F12.7°C
Winds 17.0 mph 27.4 kmh Calm Calm 3.0 mph SE4.8 kmh SE
Wind Gusts 33.0 mph53.1 kmh -- 8.0 mph12.9 kmh
Humidity 93% 66% 81%
Pressure 29.88 in1011.9 mb 29.65 in1004.1 mb -
Precipitation 1.03 in26.2 mm - -
Hour Temp Dew Point Humidity Winds Wind Gusts Pressure Precip Precip Rate Daily Precip Total
12:00 AM 60.1°F15.6°C 48.3°F9.1°C 65% 2.6 mph NNE4.2 kmh NNE 3.0 mph4.8 kmh 29.89 in1012.2 mb 0.00 in0.0 mm 0.00 in0.0 mm 0.00 in0.0 mm
12:05 AM 59.9°F15.5°C 48.1°F8.9°C 65% 1.9 mph NE3.1 kmh NE 4.0 mph6.4 kmh 29.89 in1012.2 mb 0.00 in0.0 mm 0.00 in0.0 mm 0.00 in0.0 mm
12:10 AM 59.5°F15.3°C 48.1°F8.9°C 66% 2.1 mph NE3.4 kmh NE 6.0 mph9.7 kmh 29.89 in1012.2 mb 0.00 in0.0 mm 0.00 in0.0 mm 0.00 in0.0 mm
12:15 AM 59.3°F15.2°C 48.3°F9.1°C 67% 3.1 mph NE5.0 kmh NE 7.0 mph11.3 kmh 29.89 in1012.2 mb 0.00 in0.0 mm 0.00 in0.0 mm 0.00 in0.0 mm
12:20 AM 59.2°F15.1°C 48.2°F9.0°C 67% 3.8 mph NE6.1 kmh NE 7.0 mph11.3 kmh 29.89 in1012.2 mb 0.00 in0.0 mm 0.00 in0.0 mm 0.00 in0.0 mm
12:25 AM 59.3°F15.2°C 48.3°F9.1°C 67% 3.2 mph NE5.1 kmh NE 4.0 mph6.4 kmh 29.89 in1012.2 mb 0.00 in0.0 mm 0.00 in0.0 mm 0.00 in0.0 mm
12:30 AM 59.1°F15.1°C 48.1°F8.9°C 67% 1.8 mph NE2.9 kmh NE 5.0 mph8.0 kmh 29.89 in1012.2 mb 0.00 in0.0 mm 0.00 in0.0 mm 0.00 in0.0 mm
12:35 AM 59.0°F15.0°C 48.1°F8.9°C 67% 1.4 mph NE2.3 kmh NE 6.0 mph9.7 kmh 29.88 in1011.9 mb 0.00 in0.0 mm 0.00 in0.0 mm 0.00 in0.0 mm
12:40 AM 59.1°F15.1°C 48.1°F8.9°C 67% 2.3 mph NE3.7 kmh NE 7.0 mph11.3 kmh 29.89 in1012.2 mb 0.00 in0.0 mm 0.00 in0.0 mm 0.00 in0.0 mm
12:45 AM 59.1°F15.1°C 48.1°F8.9°C 67% 2.9 mph NE4.7 kmh NE 7.0 mph11.3 kmh 29.88 in1011.9 mb 0.00 in0.0 mm 0.00 in0.0 mm 0.00 in0.0 mm
12:50 AM 59.0°F15.0°C 48.1°F8.9°C 67% 3.3 mph NE5.3 kmh NE 7.0 mph11.3 kmh 29.88 in1011.9 mb 0.00 in0.0 mm 0.00 in0.0 mm 0.00 in0.0 mm
12:55 AM 58.8°F14.9°C 47.9°F8.8°C 67% 3.7 mph NE6.0 kmh NE 7.0 mph11.3 kmh 29.88 in1011.9 mb 0.00 in0.0 mm 0.00 in0.0 mm 0.00 in0.0 mm
01:00 AM 58.8°F14.9°C 48.3°F9.1°C 68% 3.4 mph NE5.5 kmh NE 7.0 mph11.3 kmh 29.88 in1011.9 mb 0.00 in0.0 mm 0.00 in0.0 mm 0.00 in0.0 mm
01:05 AM 58.8°F14.9°C 48.3°F9.1°C 68% 3.0 mph NE4.8 kmh NE 5.0 mph8.0 kmh 29.88 in1011.9 mb 0.00 in0.0 mm 0.00 in0.0 mm 0.00 in0.0 mm
01:10 AM 58.8°F14.9°C 48.3°F9.1°C 68% 2.9 mph NE4.7 kmh NE 7.0 mph11.3 kmh 29.88 in1011.9 mb 0.00 in0.0 mm 0.00 in0.0 mm 0.00 in0.0 mm
01:15 AM 58.7°F14.8°C 48.2°F9.0°C 68% 2.9 mph NE4.7 kmh NE 8.0 mph12.9 kmh 29.88 in1011.9 mb 0.00 in0.0 mm 0.00 in0.0 mm 0.00 in0.0 mm
01:20 AM 58.7°F14.8°C 48.2°F9.0°C 68% 3.5 mph NE5.6 kmh NE 8.0 mph12.9 kmh 29.87 in1011.5 mb 0.00 in0.0 mm 0.00 in0.0 mm 0.00 in0.0 mm
01:25 AM 58.8°F14.9°C 48.3°F9.1°C 68% 4.0 mph NE6.4 kmh NE 8.0 mph12.9 kmh 29.87 in1011.5 mb 0.00 in0.0 mm 0.00 in0.0 mm 0.00 in0.0 mm
01:30 AM 58.9°F14.9°C 48.0°F8.9°C 67% 4.0 mph NE6.4 kmh NE 8.0 mph12.9 kmh 29.86 in1011.2 mb 0.00 in0.0 mm 0.00 in0.0 mm 0.00 in0.0 mm
01:35 AM 59.1°F15.1°C 48.1°F8.9°C 67% 3.9 mph NE6.3 kmh NE 6.0 mph9.7 kmh 29.87 in1011.5 mb 0.00 in0.0 mm 0.00 in0.0 mm 0.00 in0.0 mm
01:40 AM 59.4°F15.2°C 48.0°F8.9°C 66% 3.6 mph NE5.8 kmh NE 6.0 mph9.7 kmh 29.86 in1011.2 mb 0.00 in0.0 mm 0.00 in0.0 mm 0.00 in0.0 mm
01:45 AM 59.5°F15.3°C 48.1°F8.9°C 66% 3.0 mph NE4.8 kmh NE 7.0 mph11.3 kmh 29.86 in1011.2 mb 0.00 in0.0 mm 0.00 in0.0 mm 0.00 in0.0 mm
01:50 AM 59.3°F15.2°C 47.9°F8.8°C 66% 2.8 mph NE4.5 kmh NE 9.0 mph14.5 kmh 29.86 in1011.2 mb 0.00 in0.0 mm 0.00 in0.0 mm 0.00 in0.0 mm
01:55 AM 59.3°F15.2°C 48.3°F9.1°C 67% 3.5 mph NE5.6 kmh NE 9.0 mph14.5 kmh 29.86 in1011.2 mb 0.00 in0.0 mm 0.00 in0.0 mm 0.00 in0.0 mm
02:00 AM 59.3°F15.2°C 48.3°F9.1°C 67% 3.7 mph NE6.0 kmh NE 6.0 mph9.7 kmh 29.85 in1010.8 mb 0.00 in0.0 mm 0.00 in0.0 mm 0.00 in0.0 mm
02:05 AM 59.4°F15.2°C 48.4°F9.1°C 67% 2.7 mph NE4.3 kmh NE 4.0 mph6.4 kmh 29.86 in1011.2 mb 0.00 in0.0 mm 0.00 in0.0 mm 0.00 in0.0 mm
02:10 AM 59.6°F15.3°C 49.0°F9.4°C 68% 1.5 mph NE2.4 kmh NE 4.0 mph6.4 kmh 29.86 in1011.2 mb 0.00 in0.0 mm 0.00 in0.0 mm 0.00 in0.0 mm
02:15 AM 59.6°F15.3°C 49.4°F9.7°C 69% 0.6 mph WSW1.0 kmh WSW 2.0 mph3.2 kmh 29.86 in1011.2 mb 0.00 in0.0 mm 0.00 in0.0 mm 0.00 in0.0 mm
02:20 AM 59.6°F15.3°C 50.9°F10.5°C 73% 0.1 mph WSW0.2 kmh WSW 3.0 mph4.8 kmh 29.86 in1011.2 mb 0.02 in0.5 mm 0.24 in6.1 mm 0.02 in0.5 mm
02:25 AM 59.1°F15.1°C 51.5°F10.8°C 76% Calm Calm 3.0 mph4.8 kmh 29.86 in1011.2 mb 0.02 in0.5 mm 0.00 in0.0 mm 0.02 in0.5 mm
02:30 AM 58.2°F14.6°C 52.1°F11.2°C 80% 0.3 mph WSW0.5 kmh WSW 5.0 mph8.0 kmh 29.86 in1011.2 mb 0.07 in1.8 mm 0.60 in15.2 mm 0.07 in1.8 mm
02:35 AM 57.4°F14.1°C 51.9°F11.1°C 82% 1.0 mph NNE1.6 kmh NNE 5.0 mph8.0 kmh 29.86 in1011.2 mb 0.09 in2.3 mm 0.24 in6.1 mm 0.09 in2.3 mm
02:40 AM 57.0°F13.9°C 51.9°F11.1°C 83% 1.7 mph NE2.7 kmh NE 6.0 mph9.7 kmh 29.85 in1010.8 mb 0.12 in3.0 mm 0.36 in9.1 mm 0.12 in3.0 mm
02:45 AM 56.6°F13.7°C 51.8°F11.0°C 84% 2.6 mph NE4.2 kmh NE 6.0 mph9.7 kmh 29.85 in1010.8 mb 0.17 in4.3 mm 0.60 in15.2 mm 0.17 in4.3 mm
02:50 AM 56.4°F13.6°C 52.3°F11.3°C 86% 3.7 mph NE6.0 kmh NE 9.0 mph14.5 kmh 29.84 in1010.5 mb 0.20 in5.1 mm 0.36 in9.1 mm 0.20 in5.1 mm
02:55 AM 56.5°F13.6°C 52.7°F11.5°C 87% 3.8 mph NE6.1 kmh NE 9.0 mph14.5 kmh 29.85 in1010.8 mb 0.21 in5.3 mm 0.12 in3.0 mm 0.21 in5.3 mm
03:00 AM 56.7°F13.7°C 53.2°F11.8°C 88% 2.7 mph WSW4.3 kmh WSW 11.0 mph17.7 kmh 29.84 in1010.5 mb 0.22 in5.6 mm 0.01 in0.3 mm 0.22 in5.6 mm
03:05 AM 56.8°F13.8°C 53.3°F11.8°C 88% 2.5 mph WSW4.0 kmh WSW 11.0 mph17.7 kmh 29.85 in1010.8 mb 0.22 in5.6 mm 0.00 in0.0 mm 0.22 in5.6 mm
03:10 AM 56.9°F13.8°C 53.4°F11.9°C 88% 2.4 mph WSW3.9 kmh WSW 2.0 mph3.2 kmh 29.84 in1010.5 mb 0.23 in5.8 mm 0.12 in3.0 mm 0.23 in5.8 mm
03:15 AM 57.0°F13.9°C 53.8°F12.1°C 89% 0.9 mph N1.4 kmh N 3.0 mph4.8 kmh 29.84 in1010.5 mb 0.25 in6.4 mm 0.24 in6.1 mm 0.26 in6.6 mm
03:20 AM 56.8°F13.8°C 53.3°F11.8°C 88% 0.7 mph NE1.1 kmh NE 8.0 mph12.9 kmh 29.84 in1010.5 mb 0.30 in7.6 mm 0.60 in15.2 mm 0.31 in7.9 mm
03:25 AM 56.4°F13.6°C 53.2°F11.8°C 89% 2.3 mph NE3.7 kmh NE 8.0 mph12.9 kmh 29.84 in1010.5 mb 0.35 in8.9 mm 0.60 in15.2 mm 0.38 in9.7 mm
03:30 AM 56.3°F13.5°C 53.1°F11.7°C 89% 3.5 mph NE5.6 kmh NE 5.0 mph8.0 kmh 29.83 in1010.2 mb 0.35 in8.9 mm 0.00 in0.0 mm 0.43 in10.9 mm
03:35 AM 56.4°F13.6°C 53.8°F12.1°C 91% 2.9 mph NNE4.7 kmh NNE 5.0 mph8.0 kmh 29.84 in1010.5 mb 0.35 in8.9 mm 0.00 in0.0 mm 0.44 in11.2 mm
03:40 AM 56.6°F13.7°C 54.0°F12.2°C 91% 2.2 mph WSW3.5 kmh WSW 8.0 mph12.9 kmh 29.84 in1010.5 mb 0.34 in8.6 mm 0.00 in0.0 mm 0.46 in11.7 mm
03:45 AM 56.8°F13.8°C 54.2°F12.3°C 91% 2.9 mph WSW4.7 kmh WSW 8.0 mph12.9 kmh 29.83 in1010.2 mb 0.43 in10.9 mm 1.08 in27.4 mm 0.61 in15.5 mm
03:50 AM 56.9°F13.8°C 54.6°F12.6°C 92% 3.2 mph W5.1 kmh W 7.0 mph11.3 kmh 29.84 in1010.5 mb 0.44 in11.2 mm 0.12 in3.0 mm 0.65 in16.5 mm
03:55 AM 57.0°F13.9°C 54.7°F12.6°C 92% 1.9 mph NNW3.1 kmh NNW 3.0 mph4.8 kmh 29.84 in1010.5 mb 0.50 in12.7 mm 0.72 in18.3 mm 0.72 in18.3 mm
04:00 AM 56.9°F13.8°C 54.3°F12.4°C 91% 0.5 mph WSW0.8 kmh WSW 1.0 mph1.6 kmh 29.83 in1010.2 mb 0.50 in12.7 mm 0.00 in0.0 mm 0.72 in18.3 mm
04:05 AM 56.9°F13.8°C 54.6°F12.6°C 92% Calm Calm -- 29.84 in1010.5 mb 0.51 in13.0 mm 0.12 in3.0 mm 0.73 in18.5 mm
04:10 AM 57.0°F13.9°C 54.7°F12.6°C 92% Calm Calm -- 29.83 in1010.2 mb 0.50 in12.7 mm 0.00 in0.0 mm 0.73 in18.5 mm
04:15 AM 56.7°F13.7°C 54.4°F12.4°C 92% Calm Calm -- 29.83 in1010.2 mb 0.47 in11.9 mm 0.00 in0.0 mm 0.73 in18.5 mm
04:20 AM 56.5°F13.6°C 54.2°F12.3°C 92% Calm Calm -- 29.83 in1010.2 mb 0.42 in10.7 mm 0.00 in0.0 mm 0.73 in18.5 mm
04:25 AM 56.6°F13.7°C 54.3°F12.4°C 92% Calm Calm -- 29.83 in1010.2 mb 0.35 in8.9 mm 0.00 in0.0 mm 0.73 in18.5 mm
04:30 AM 56.7°F13.7°C 54.4°F12.4°C 92% Calm Calm -- 29.83 in1010.2 mb 0.31 in7.9 mm 0.00 in0.0 mm 0.73 in18.5 mm
04:35 AM 56.8°F13.8°C 54.8°F12.7°C 93% Calm Calm 3.0 mph4.8 kmh 29.83 in1010.2 mb 0.29 in7.4 mm 0.00 in0.0 mm 0.73 in18.5 mm
04:40 AM 56.8°F13.8°C 54.8°F12.7°C 93% Calm Calm 3.0 mph4.8 kmh 29.83 in1010.2 mb 0.25 in6.4 mm 0.00 in0.0 mm 0.73 in18.5 mm
04:45 AM 57.0°F13.9°C 55.0°F12.8°C 93% Calm Calm 2.0 mph3.2 kmh 29.82 in1009.8 mb 0.13 in3.3 mm 0.00 in0.0 mm 0.73 in18.5 mm
04:50 AM 57.0°F13.9°C 55.0°F12.8°C 93% Calm Calm 2.0 mph3.2 kmh 29.82 in1009.8 mb 0.08 in2.0 mm 0.00 in0.0 mm 0.73 in18.5 mm
04:55 AM 57.2°F14.0°C 55.2°F12.9°C 93% Calm Calm 3.0 mph4.8 kmh 29.82 in1009.8 mb 0.02 in0.5 mm 0.00 in0.0 mm 0.73 in18.5 mm
05:00 AM 57.2°F14.0°C 55.2°F12.9°C 93% Calm Calm 3.0 mph4.8 kmh 29.81 in1009.5 mb 0.01 in0.3 mm 0.00 in0.0 mm 0.73 in18.5 mm
05:05 AM 57.0°F13.9°C 54.7°F12.6°C 92% 0.5 mph NE0.8 kmh NE 10.0 mph16.1 kmh 29.81 in1009.5 mb 0.00 in0.0 mm 0.00 in0.0 mm 0.73 in18.5 mm
05:10 AM 57.1°F13.9°C 54.8°F12.7°C 92% 2.2 mph NE3.5 kmh NE 10.0 mph16.1 kmh 29.81 in1009.5 mb 0.00 in0.0 mm 0.00 in0.0 mm 0.73 in18.5 mm
05:15 AM 57.1°F13.9°C 54.8°F12.7°C 92% 3.3 mph NE5.3 kmh NE 8.0 mph12.9 kmh 29.82 in1009.8 mb 0.00 in0.0 mm 0.00 in0.0 mm 0.73 in18.5 mm
05:20 AM 57.2°F14.0°C 54.9°F12.7°C 92% 2.4 mph SW3.9 kmh SW 4.0 mph6.4 kmh 29.82 in1009.8 mb 0.00 in0.0 mm 0.00 in0.0 mm 0.73 in18.5 mm
05:25 AM 57.8°F14.3°C 55.5°F13.1°C 92% 1.4 mph SW2.3 kmh SW 5.0 mph8.0 kmh 29.81 in1009.5 mb 0.00 in0.0 mm 0.00 in0.0 mm 0.73 in18.5 mm
05:30 AM 57.8°F14.3°C 55.5°F13.1°C 92% 1.6 mph SW2.6 kmh SW 5.0 mph8.0 kmh 29.81 in1009.5 mb 0.00 in0.0 mm 0.00 in0.0 mm 0.73 in18.5 mm
05:35 AM 57.7°F14.3°C 55.4°F13.0°C 92% 2.1 mph WSW3.4 kmh WSW 5.0 mph8.0 kmh 29.81 in1009.5 mb 0.00 in0.0 mm 0.00 in0.0 mm 0.73 in18.5 mm
05:40 AM 57.8°F14.3°C 55.5°F13.1°C 92% 1.8 mph SW2.9 kmh SW 3.0 mph4.8 kmh 29.81 in1009.5 mb 0.00 in0.0 mm 0.00 in0.0 mm 0.73 in18.5 mm
05:45 AM 57.7°F14.3°C 55.4°F13.0°C 92% 0.8 mph SSW1.3 kmh SSW 2.0 mph3.2 kmh 29.81 in1009.5 mb 0.00 in0.0 mm 0.00 in0.0 mm 0.73 in18.5 mm
05:50 AM 57.6°F14.2°C 55.3°F12.9°C 92% 0.1 mph 0.2 kmh -- 29.81 in1009.5 mb 0.00 in0.0 mm 0.00 in0.0 mm 0.73 in18.5 mm
05:55 AM 57.5°F14.2°C 55.2°F12.9°C 92% Calm Calm 3.0 mph4.8 kmh 29.81 in1009.5 mb 0.00 in0.0 mm 0.00 in0.0 mm 0.73 in18.5 mm
06:00 AM 57.5°F14.2°C 55.2°F12.9°C 92% Calm Calm 3.0 mph4.8 kmh 29.81 in1009.5 mb 0.00 in0.0 mm 0.00 in0.0 mm 0.73 in18.5 mm
06:05 AM 57.4°F14.1°C 55.1°F12.8°C 92% Calm Calm 3.0 mph4.8 kmh 29.81 in1009.5 mb 0.00 in0.0 mm 0.00 in0.0 mm 0.73 in18.5 mm
06:10 AM 57.4°F14.1°C 55.1°F12.8°C 92% Calm Calm 2.0 mph3.2 kmh 29.81 in1009.5 mb 0.00 in0.0 mm 0.00 in0.0 mm 0.73 in18.5 mm
06:15 AM 57.4°F14.1°C 55.4°F13.0°C 93% Calm Calm -- 29.80 in1009.1 mb 0.00 in0.0 mm 0.00 in0.0 mm 0.73 in18.5 mm
06:20 AM 57.5°F14.2°C 55.5°F13.1°C 93% Calm Calm -- 29.80 in1009.1 mb 0.00 in0.0 mm 0.00 in0.0 mm 0.73 in18.5 mm
06:25 AM 57.5°F14.2°C 55.5°F13.1°C 93% Calm Calm -- 29.80 in1009.1 mb 0.00 in0.0 mm 0.00 in0.0 mm 0.73 in18.5 mm
06:30 AM 57.5°F14.2°C 55.5°F13.1°C 93% Calm Calm -- 29.80 in1009.1 mb 0.00 in0.0 mm 0.00 in0.0 mm 0.73 in18.5 mm
06:35 AM 57.6°F14.2°C 55.6°F13.1°C 93% Calm Calm -- 29.80 in1009.1 mb 0.00 in0.0 mm 0.00 in0.0 mm 0.73 in18.5 mm
06:40 AM 57.6°F14.2°C 55.6°F13.1°C 93% Calm Calm 4.0 mph6.4 kmh 29.80 in1009.1 mb 0.00 in0.0 mm 0.00 in0.0 mm 0.73 in18.5 mm
06:45 AM 57.5°F14.2°C 55.5°F13.1°C 93% 0.3 mph WSW0.5 kmh WSW 4.0 mph6.4 kmh 29.80 in1009.1 mb 0.00 in0.0 mm 0.00 in0.0 mm 0.73 in18.5 mm
06:50 AM 57.6°F14.2°C 55.6°F13.1°C 93% 0.8 mph WSW1.3 kmh WSW 4.0 mph6.4 kmh 29.80 in1009.1 mb 0.00 in0.0 mm 0.00 in0.0 mm 0.73 in18.5 mm
06:55 AM 57.6°F14.2°C 55.6°F13.1°C 93% 1.0 mph WSW1.6 kmh WSW 4.0 mph6.4 kmh 29.80 in1009.1 mb 0.00 in0.0 mm 0.00 in0.0 mm 0.73 in18.5 mm
07:00 AM 57.6°F14.2°C 55.6°F13.1°C 93% 1.0 mph WSW1.6 kmh WSW 2.0 mph3.2 kmh 29.80 in1009.1 mb 0.00 in0.0 mm 0.00 in0.0 mm 0.73 in18.5 mm
07:05 AM 57.8°F14.3°C 55.8°F13.2°C 93% 0.5 mph WSW0.8 kmh WSW 2.0 mph3.2 kmh 29.80 in1009.1 mb 0.00 in0.0 mm 0.00 in0.0 mm 0.73 in18.5 mm
07:10 AM 57.8°F14.3°C 55.5°F13.1°C 92% 0.2 mph WSW0.3 kmh WSW 3.0 mph4.8 kmh 29.80 in1009.1 mb 0.00 in0.0 mm 0.00 in0.0 mm 0.73 in18.5 mm
07:15 AM 57.8°F14.3°C 55.8°F13.2°C 93% 0.7 mph WSW1.1 kmh WSW 3.0 mph4.8 kmh 29.81 in1009.5 mb 0.00 in0.0 mm 0.00 in0.0 mm 0.73 in18.5 mm
07:20 AM 57.9°F14.4°C 55.9°F13.3°C 93% 1.0 mph SW1.6 kmh SW 3.0 mph4.8 kmh 29.81 in1009.5 mb 0.00 in0.0 mm 0.00 in0.0 mm 0.73 in18.5 mm
07:25 AM 58.1°F14.5°C 56.1°F13.4°C 93% 1.0 mph SW1.6 kmh SW 4.0 mph6.4 kmh 29.81 in1009.5 mb 0.02 in0.5 mm 0.24 in6.1 mm 0.75 in19.1 mm
07:30 AM 58.1°F14.5°C 55.8°F13.2°C 92% 1.0 mph SW1.6 kmh SW 4.0 mph6.4 kmh 29.80 in1009.1 mb 0.07 in1.8 mm 0.60 in15.2 mm 0.80 in20.3 mm
07:35 AM 58.1°F14.5°C 56.1°F13.4°C 93% 1.0 mph NE1.6 kmh NE 3.0 mph4.8 kmh 29.80 in1009.1 mb 0.08 in2.0 mm 0.12 in3.0 mm 0.81 in20.6 mm
07:40 AM 58.0°F14.4°C 55.7°F13.2°C 92% 1.0 mph NE1.6 kmh NE 3.0 mph4.8 kmh 29.80 in1009.1 mb 0.08 in2.0 mm 0.00 in0.0 mm 0.81 in20.6 mm
07:45 AM 57.9°F14.4°C 55.9°F13.3°C 93% 0.6 mph 1.0 kmh -- 29.80 in1009.1 mb 0.08 in2.0 mm 0.00 in0.0 mm 0.81 in20.6 mm
07:50 AM 58.0°F14.4°C 56.0°F13.3°C 93% 0.4 mph NE0.6 kmh NE 4.0 mph6.4 kmh 29.80 in1009.1 mb 0.08 in2.0 mm 0.00 in0.0 mm 0.81 in20.6 mm
07:55 AM 58.1°F14.5°C 56.1°F13.4°C 93% 0.8 mph NE1.3 kmh NE 4.0 mph6.4 kmh 29.80 in1009.1 mb 0.08 in2.0 mm 0.00 in0.0 mm 0.81 in20.6 mm
08:00 AM 58.2°F14.6°C 56.2°F13.4°C 93% 0.7 mph NE1.1 kmh NE 2.0 mph3.2 kmh 29.79 in1008.8 mb 0.08 in2.0 mm 0.00 in0.0 mm 0.81 in20.6 mm
08:05 AM 58.4°F14.7°C 56.4°F13.6°C 93% 0.4 mph NE0.6 kmh NE 2.0 mph3.2 kmh 29.80 in1009.1 mb 0.08 in2.0 mm 0.00 in0.0 mm 0.81 in20.6 mm
08:10 AM 58.6°F14.8°C 56.6°F13.7°C 93% 0.7 mph NNE1.1 kmh NNE 2.0 mph3.2 kmh 29.80 in1009.1 mb 0.08 in2.0 mm 0.00 in0.0 mm 0.81 in20.6 mm
08:15 AM 58.6°F14.8°C 56.6°F13.7°C 93% 1.0 mph WSW1.6 kmh WSW 4.0 mph6.4 kmh 29.79 in1008.8 mb 0.08 in2.0 mm 0.00 in0.0 mm 0.81 in20.6 mm
08:20 AM 58.6°F14.8°C 56.6°F13.7°C 93% 1.0 mph WSW1.6 kmh WSW 4.0 mph6.4 kmh 29.79 in1008.8 mb 0.08 in2.0 mm 0.00 in0.0 mm 0.81 in20.6 mm
08:25 AM 58.9°F14.9°C 56.9°F13.8°C 93% 0.8 mph WSW1.3 kmh WSW 3.0 mph4.8 kmh 29.79 in1008.8 mb 0.06 in1.5 mm 0.00 in0.0 mm 0.81 in20.6 mm
08:30 AM 59.5°F15.3°C 57.5°F14.2°C 93% 0.8 mph WSW1.3 kmh WSW 3.0 mph4.8 kmh 29.79 in1008.8 mb 0.00 in0.0 mm 0.00 in0.0 mm 0.81 in20.6 mm
08:35 AM 59.8°F15.4°C 57.5°F14.2°C 92% 1.0 mph WSW1.6 kmh WSW 3.0 mph4.8 kmh 29.79 in1008.8 mb 0.00 in0.0 mm 0.00 in0.0 mm 0.81 in20.6 mm
08:40 AM 60.0°F15.6°C 57.4°F14.1°C 91% 1.0 mph WSW1.6 kmh WSW 3.0 mph4.8 kmh 29.79 in1008.8 mb 0.00 in0.0 mm 0.00 in0.0 mm 0.81 in20.6 mm
08:45 AM 60.0°F15.6°C 57.1°F13.9°C 90% 1.3 mph WSW2.1 kmh WSW 6.0 mph9.7 kmh 29.79 in1008.8 mb 0.00 in0.0 mm 0.00 in0.0 mm 0.81 in20.6 mm
08:50 AM 59.8°F15.4°C 56.9°F13.8°C 90% 2.1 mph WSW3.4 kmh WSW 6.0 mph9.7 kmh 29.80 in1009.1 mb 0.00 in0.0 mm 0.00 in0.0 mm 0.81 in20.6 mm
08:55 AM 60.1°F15.6°C 57.5°F14.2°C 91% 2.8 mph WSW4.5 kmh WSW 6.0 mph9.7 kmh 29.80 in1009.1 mb 0.00 in0.0 mm 0.00 in0.0 mm 0.81 in20.6 mm
09:00 AM 60.4°F15.8°C 57.8°F14.3°C 91% 2.3 mph WSW3.7 kmh WSW 4.0 mph6.4 kmh 29.79 in1008.8 mb 0.00 in0.0 mm 0.00 in0.0 mm 0.81 in20.6 mm
09:05 AM 60.5°F15.8°C 57.6°F14.2°C 90% 1.1 mph WSW1.8 kmh WSW 1.0 mph1.6 kmh 29.79 in1008.8 mb 0.00 in0.0 mm 0.00 in0.0 mm 0.81 in20.6 mm
09:10 AM 60.7°F15.9°C 57.7°F14.3°C 90% 0.3 mph 0.5 kmh -- 29.79 in1008.8 mb 0.00 in0.0 mm 0.00 in0.0 mm 0.81 in20.6 mm
09:15 AM 60.9°F16.1°C 57.9°F14.4°C 90% Calm Calm 2.0 mph3.2 kmh 29.79 in1008.8 mb 0.00 in0.0 mm 0.00 in0.0 mm 0.81 in20.6 mm
09:20 AM 61.4°F16.3°C 58.4°F14.7°C 90% Calm Calm 2.0 mph3.2 kmh 29.79 in1008.8 mb 0.00 in0.0 mm 0.00 in0.0 mm 0.81 in20.6 mm
09:25 AM 62.1°F16.7°C 59.1°F15.1°C 90% Calm Calm 2.0 mph3.2 kmh 29.79 in1008.8 mb 0.00 in0.0 mm 0.00 in0.0 mm 0.81 in20.6 mm
09:30 AM 61.9°F16.6°C 58.6°F14.8°C 89% Calm Calm 4.0 mph6.4 kmh 29.79 in1008.8 mb 0.00 in0.0 mm 0.00 in0.0 mm 0.81 in20.6 mm
09:35 AM 61.8°F16.6°C 57.9°F14.4°C 87% Calm Calm 4.0 mph6.4 kmh 29.79 in1008.8 mb 0.00 in0.0 mm 0.00 in0.0 mm 0.81 in20.6 mm
09:40 AM 61.8°F16.6°C 58.2°F14.6°C 88% Calm Calm 2.0 mph3.2 kmh 29.79 in1008.8 mb 0.00 in0.0 mm 0.00 in0.0 mm 0.81 in20.6 mm
09:45 AM 62.2°F16.8°C 58.6°F14.8°C 88% Calm Calm 1.0 mph1.6 kmh 29.79 in1008.8 mb 0.00 in0.0 mm 0.00 in0.0 mm 0.81 in20.6 mm
09:50 AM 62.5°F16.9°C 58.6°F14.8°C 87% Calm Calm 3.0 mph4.8 kmh 29.79 in1008.8 mb 0.00 in0.0 mm 0.00 in0.0 mm 0.81 in20.6 mm
09:55 AM 62.9°F17.2°C 58.6°F14.8°C 86% 0.4 mph WSW0.6 kmh WSW 3.0 mph4.8 kmh 29.78 in1008.5 mb 0.00 in0.0 mm 0.00 in0.0 mm 0.81 in20.6 mm
10:00 AM 63.0°F17.2°C 58.1°F14.5°C 84% 0.9 mph WSW1.4 kmh WSW 3.0 mph4.8 kmh 29.78 in1008.5 mb 0.00 in0.0 mm 0.00 in0.0 mm 0.81 in20.6 mm
10:05 AM 63.3°F17.4°C 58.7°F14.8°C 85% 0.6 mph 1.0 kmh -- 29.77 in1008.1 mb 0.00 in0.0 mm 0.00 in0.0 mm 0.81 in20.6 mm
10:10 AM 63.8°F17.7°C 58.9°F14.9°C 84% 0.1 mph 0.2 kmh -- 29.77 in1008.1 mb 0.00 in0.0 mm 0.00 in0.0 mm 0.81 in20.6 mm
10:15 AM 63.8°F17.7°C 58.5°F14.7°C 83% Calm Calm 3.0 mph4.8 kmh 29.76 in1007.8 mb 0.00 in0.0 mm 0.00 in0.0 mm 0.81 in20.6 mm
10:20 AM 64.0°F17.8°C 58.7°F14.8°C 83% Calm Calm 3.0 mph4.8 kmh 29.76 in1007.8 mb 0.00 in0.0 mm 0.00 in0.0 mm 0.81 in20.6 mm
10:25 AM 64.1°F17.8°C 59.2°F15.1°C 84% Calm Calm 1.0 mph1.6 kmh 29.76 in1007.8 mb 0.00 in0.0 mm 0.00 in0.0 mm 0.81 in20.6 mm
10:30 AM 64.3°F17.9°C 59.0°F15.0°C 83% Calm Calm -- 29.75 in1007.5 mb 0.00 in0.0 mm 0.00 in0.0 mm 0.81 in20.6 mm
10:35 AM 64.7°F18.2°C 59.8°F15.4°C 84% Calm Calm -- 29.75 in1007.5 mb 0.00 in0.0 mm 0.00 in0.0 mm 0.81 in20.6 mm
10:40 AM 65.1°F18.4°C 59.5°F15.3°C 82% Calm Calm 4.0 mph6.4 kmh 29.75 in1007.5 mb 0.00 in0.0 mm 0.00 in0.0 mm 0.81 in20.6 mm
10:45 AM 64.8°F18.2°C 59.2°F15.1°C 82% 0.3 mph WSW0.5 kmh WSW 4.0 mph6.4 kmh 29.75 in1007.5 mb 0.00 in0.0 mm 0.00 in0.0 mm 0.81 in20.6 mm
10:50 AM 65.0°F18.3°C 59.7°F15.4°C 83% 0.8 mph WSW1.3 kmh WSW 4.0 mph6.4 kmh 29.75 in1007.5 mb 0.00 in0.0 mm 0.00 in0.0 mm 0.81 in20.6 mm
10:55 AM 65.2°F18.4°C 59.6°F15.3°C 82% 0.8 mph WSW1.3 kmh WSW 5.0 mph8.0 kmh 29.75 in1007.5 mb 0.00 in0.0 mm 0.00 in0.0 mm 0.81 in20.6 mm
11:00 AM 64.3°F17.9°C 59.0°F15.0°C 83% 0.8 mph WSW1.3 kmh WSW 5.0 mph8.0 kmh 29.74 in1007.1 mb 0.00 in0.0 mm 0.00 in0.0 mm 0.81 in20.6 mm
11:05 AM 64.1°F17.8°C 58.8°F14.9°C 83% 1.5 mph WSW2.4 kmh WSW 5.0 mph8.0 kmh 29.74 in1007.1 mb 0.00 in0.0 mm 0.00 in0.0 mm 0.81 in20.6 mm
11:10 AM 64.2°F17.9°C 59.3°F15.2°C 84% 1.5 mph WSW2.4 kmh WSW 4.0 mph6.4 kmh 29.74 in1007.1 mb 0.00 in0.0 mm 0.00 in0.0 mm 0.81 in20.6 mm
11:15 AM 64.2°F17.9°C 58.9°F14.9°C 83% 0.5 mph W0.8 kmh W 1.0 mph1.6 kmh 29.74 in1007.1 mb 0.00 in0.0 mm 0.00 in0.0 mm 0.81 in20.6 mm
11:20 AM 64.1°F17.8°C 58.8°F14.9°C 83% Calm Calm 1.0 mph1.6 kmh 29.74 in1007.1 mb 0.00 in0.0 mm 0.00 in0.0 mm 0.81 in20.6 mm
11:25 AM 64.2°F17.9°C 58.9°F14.9°C 83% Calm Calm 1.0 mph1.6 kmh 29.74 in1007.1 mb 0.00 in0.0 mm 0.00 in0.0 mm 0.81 in20.6 mm
11:30 AM 64.3°F17.9°C 59.0°F15.0°C 83% Calm Calm 2.0 mph3.2 kmh 29.74 in1007.1 mb 0.00 in0.0 mm 0.00 in0.0 mm 0.81 in20.6 mm
11:35 AM 64.3°F17.9°C 59.4°F15.2°C 84% Calm Calm 2.0 mph3.2 kmh 29.73 in1006.8 mb 0.00 in0.0 mm 0.00 in0.0 mm 0.81 in20.6 mm
11:40 AM 64.2°F17.9°C 58.9°F14.9°C 83% Calm Calm 2.0 mph3.2 kmh 29.73 in1006.8 mb 0.00 in0.0 mm 0.00 in0.0 mm 0.81 in20.6 mm
11:45 AM 64.0°F17.8°C 59.1°F15.1°C 84% 0.3 mph WSW0.5 kmh WSW 5.0 mph8.0 kmh 29.74 in1007.1 mb 0.00 in0.0 mm 0.00 in0.0 mm 0.81 in20.6 mm
11:50 AM 63.6°F17.6°C 58.7°F14.8°C 84% 1.1 mph SW1.8 kmh SW 5.0 mph8.0 kmh 29.73 in1006.8 mb 0.01 in0.3 mm 0.12 in3.0 mm 0.82 in20.8 mm
11:55 AM 63.3°F17.4°C 59.0°F15.0°C 86% 1.5 mph SW2.4 kmh SW 4.0 mph6.4 kmh 29.73 in1006.8 mb 0.02 in0.5 mm 0.12 in3.0 mm 0.83 in21.1 mm
12:00 PM 63.3°F17.4°C 59.4°F15.2°C 87% 0.9 mph 1.4 kmh -- 29.73 in1006.8 mb 0.02 in0.5 mm 0.00 in0.0 mm 0.83 in21.1 mm
12:05 PM 63.1°F17.3°C 59.2°F15.1°C 87% 0.2 mph 0.3 kmh -- 29.72 in1006.4 mb 0.02 in0.5 mm 0.00 in0.0 mm 0.83 in21.1 mm
12:10 PM 63.0°F17.2°C 59.4°F15.2°C 88% Calm Calm -- 29.72 in1006.4 mb 0.02 in0.5 mm 0.00 in0.0 mm 0.83 in21.1 mm
12:15 PM 62.9°F17.2°C 59.0°F15.0°C 87% Calm Calm 4.0 mph6.4 kmh 29.72 in1006.4 mb 0.02 in0.5 mm 0.00 in0.0 mm 0.83 in21.1 mm
12:20 PM 62.7°F17.1°C 59.1°F15.1°C 88% 0.2 mph WSW0.3 kmh WSW 4.0 mph6.4 kmh 29.73 in1006.8 mb 0.02 in0.5 mm 0.00 in0.0 mm 0.83 in21.1 mm
12:25 PM 62.6°F17.0°C 59.3°F15.2°C 89% 0.7 mph WSW1.1 kmh WSW 4.0 mph6.4 kmh 29.72 in1006.4 mb 0.02 in0.5 mm 0.00 in0.0 mm 0.83 in21.1 mm
12:30 PM 62.3°F16.8°C 58.7°F14.8°C 88% 1.0 mph WSW1.6 kmh WSW 3.0 mph4.8 kmh 29.72 in1006.4 mb 0.02 in0.5 mm 0.00 in0.0 mm 0.83 in21.1 mm
12:35 PM 62.3°F16.8°C 58.7°F14.8°C 88% 1.0 mph WSW1.6 kmh WSW 3.0 mph4.8 kmh 29.71 in1006.1 mb 0.02 in0.5 mm 0.00 in0.0 mm 0.83 in21.1 mm
12:40 PM 62.3°F16.8°C 59.0°F15.0°C 89% 0.6 mph N1.0 kmh N 2.0 mph3.2 kmh 29.71 in1006.1 mb 0.02 in0.5 mm 0.00 in0.0 mm 0.83 in21.1 mm
12:45 PM 62.4°F16.9°C 59.1°F15.1°C 89% 0.1 mph N0.2 kmh N 2.0 mph3.2 kmh 29.72 in1006.4 mb 0.02 in0.5 mm 0.00 in0.0 mm 0.83 in21.1 mm
12:50 PM 62.5°F16.9°C 59.5°F15.3°C 90% 0.3 mph SW0.5 kmh SW 7.0 mph11.3 kmh 29.73 in1006.8 mb 0.02 in0.5 mm 0.00 in0.0 mm 0.83 in21.1 mm
12:55 PM 62.5°F16.9°C 59.2°F15.1°C 89% 1.4 mph SW2.3 kmh SW 8.0 mph12.9 kmh 29.72 in1006.4 mb 0.06 in1.5 mm 0.48 in12.2 mm 0.89 in22.6 mm
01:00 PM 62.1°F16.7°C 59.1°F15.1°C 90% 2.6 mph SW4.2 kmh SW 8.0 mph12.9 kmh 29.72 in1006.4 mb 0.08 in2.0 mm 0.02 in0.5 mm 0.91 in23.1 mm
01:05 PM 62.0°F16.7°C 59.0°F15.0°C 90% 2.7 mph SW4.3 kmh SW 7.0 mph11.3 kmh 29.71 in1006.1 mb 0.11 in2.8 mm 0.36 in9.1 mm 0.94 in23.9 mm
01:10 PM 61.9°F16.6°C 58.9°F14.9°C 90% 1.7 mph NNE2.7 kmh NNE 3.0 mph4.8 kmh 29.71 in1006.1 mb 0.12 in3.0 mm 0.12 in3.0 mm 0.94 in23.9 mm
01:15 PM 62.0°F16.7°C 59.3°F15.2°C 91% 0.7 mph NNE1.1 kmh NNE 3.0 mph4.8 kmh 29.71 in1006.1 mb 0.12 in3.0 mm 0.00 in0.0 mm 0.94 in23.9 mm
01:20 PM 62.2°F16.8°C 59.5°F15.3°C 91% 0.7 mph NNE1.1 kmh NNE 3.0 mph4.8 kmh 29.70 in1005.8 mb 0.12 in3.0 mm 0.00 in0.0 mm 0.94 in23.9 mm
01:25 PM 62.3°F16.8°C 59.6°F15.3°C 91% 1.0 mph NE1.6 kmh NE 3.0 mph4.8 kmh 29.70 in1005.8 mb 0.12 in3.0 mm 0.00 in0.0 mm 0.94 in23.9 mm
01:30 PM 62.4°F16.9°C 59.7°F15.4°C 91% 0.6 mph NE1.0 kmh NE 1.0 mph1.6 kmh 29.70 in1005.8 mb 0.12 in3.0 mm 0.00 in0.0 mm 0.94 in23.9 mm
01:35 PM 62.6°F17.0°C 59.9°F15.5°C 91% 0.1 mph 0.2 kmh -- 29.70 in1005.8 mb 0.12 in3.0 mm 0.00 in0.0 mm 0.94 in23.9 mm
01:40 PM 62.6°F17.0°C 59.9°F15.5°C 91% Calm Calm -- 29.69 in1005.4 mb 0.12 in3.0 mm 0.00 in0.0 mm 0.94 in23.9 mm
01:45 PM 62.6°F17.0°C 59.6°F15.3°C 90% Calm Calm -- 29.69 in1005.4 mb 0.11 in2.8 mm 0.00 in0.0 mm 0.94 in23.9 mm
01:50 PM 63.0°F17.2°C 60.3°F15.7°C 91% Calm Calm -- 29.69 in1005.4 mb 0.11 in2.8 mm 0.00 in0.0 mm 0.94 in23.9 mm
01:55 PM 63.2°F17.3°C 59.9°F15.5°C 89% 0.1 mph SW0.2 kmh SW 7.0 mph11.3 kmh 29.68 in1005.1 mb 0.05 in1.3 mm 0.00 in0.0 mm 0.94 in23.9 mm
02:00 PM 63.6°F17.6°C 60.0°F15.6°C 88% 0.8 mph WSW1.3 kmh WSW 7.0 mph11.3 kmh 29.68 in1005.1 mb 0.04 in1.0 mm 0.00 in0.0 mm 0.94 in23.9 mm
02:05 PM 64.0°F17.8°C 60.1°F15.6°C 87% 1.7 mph NNW2.7 kmh NNW 7.0 mph11.3 kmh 29.68 in1005.1 mb 0.01 in0.3 mm 0.00 in0.0 mm 0.94 in23.9 mm
02:10 PM 64.5°F18.1°C 60.2°F15.7°C 86% 2.0 mph WSW3.2 kmh WSW 9.0 mph14.5 kmh 29.68 in1005.1 mb 0.00 in0.0 mm 0.00 in0.0 mm 0.94 in23.9 mm
02:15 PM 65.3°F18.5°C 60.3°F15.7°C 84% 2.0 mph SW3.2 kmh SW 9.0 mph14.5 kmh 29.68 in1005.1 mb 0.00 in0.0 mm 0.00 in0.0 mm 0.94 in23.9 mm
02:20 PM 65.7°F18.7°C 59.0°F15.0°C 79% 2.0 mph SW3.2 kmh SW 8.0 mph12.9 kmh 29.68 in1005.1 mb 0.00 in0.0 mm 0.00 in0.0 mm 0.94 in23.9 mm
02:25 PM 66.3°F19.1°C 58.5°F14.7°C 76% 2.0 mph SSE3.2 kmh SSE 8.0 mph12.9 kmh 29.68 in1005.1 mb 0.00 in0.0 mm 0.00 in0.0 mm 0.94 in23.9 mm
02:30 PM 67.1°F19.5°C 57.4°F14.1°C 71% 2.0 mph SSW3.2 kmh SSW 7.0 mph11.3 kmh 29.67 in1004.7 mb 0.00 in0.0 mm 0.00 in0.0 mm 0.94 in23.9 mm
02:35 PM 67.2°F19.6°C 57.1°F13.9°C 70% 2.5 mph SW4.0 kmh SW 7.0 mph11.3 kmh 29.67 in1004.7 mb 0.00 in0.0 mm 0.00 in0.0 mm 0.94 in23.9 mm
02:40 PM 67.2°F19.6°C 56.7°F13.7°C 69% 3.0 mph SW4.8 kmh SW 10.0 mph16.1 kmh 29.67 in1004.7 mb 0.00 in0.0 mm 0.00 in0.0 mm 0.94 in23.9 mm
02:45 PM 67.2°F19.6°C 56.3°F13.5°C 68% 3.0 mph SW4.8 kmh SW 10.0 mph16.1 kmh 29.66 in1004.4 mb 0.00 in0.0 mm 0.00 in0.0 mm 0.94 in23.9 mm
02:50 PM 67.2°F19.6°C 55.9°F13.3°C 67% 3.0 mph SW4.8 kmh SW 13.0 mph20.9 kmh 29.66 in1004.4 mb 0.00 in0.0 mm 0.00 in0.0 mm 0.94 in23.9 mm
02:55 PM 67.5°F19.7°C 56.6°F13.7°C 68% 3.0 mph SW4.8 kmh SW 13.0 mph20.9 kmh 29.66 in1004.4 mb 0.00 in0.0 mm 0.00 in0.0 mm 0.94 in23.9 mm
03:00 PM 67.2°F19.6°C 55.9°F13.3°C 67% 3.4 mph SW5.5 kmh SW 12.0 mph19.3 kmh 29.66 in1004.4 mb 0.00 in0.0 mm 0.00 in0.0 mm 0.94 in23.9 mm
03:05 PM 66.7°F19.3°C 55.8°F13.2°C 68% 3.9 mph SW6.3 kmh SW 12.0 mph19.3 kmh 29.66 in1004.4 mb 0.00 in0.0 mm 0.00 in0.0 mm 0.94 in23.9 mm
03:10 PM 66.2°F19.0°C 55.7°F13.2°C 69% 4.4 mph SW7.1 kmh SW 14.0 mph22.5 kmh 29.66 in1004.4 mb 0.00 in0.0 mm 0.00 in0.0 mm 0.94 in23.9 mm
03:15 PM 65.8°F18.8°C 55.3°F12.9°C 69% 4.8 mph SW7.7 kmh SW 14.0 mph22.5 kmh 29.67 in1004.7 mb 0.00 in0.0 mm 0.00 in0.0 mm 0.94 in23.9 mm
03:20 PM 65.4°F18.6°C 56.1°F13.4°C 72% 4.6 mph SW7.4 kmh SW 13.0 mph20.9 kmh 29.67 in1004.7 mb 0.01 in0.3 mm 0.12 in3.0 mm 0.95 in24.1 mm
03:25 PM 65.0°F18.3°C 56.9°F13.8°C 75% 4.3 mph SW6.9 kmh SW 13.0 mph20.9 kmh 29.66 in1004.4 mb 0.05 in1.3 mm 0.48 in12.2 mm 0.99 in25.1 mm
03:30 PM 64.4°F18.0°C 57.0°F13.9°C 77% 3.7 mph SW6.0 kmh SW 11.0 mph17.7 kmh 29.65 in1004.1 mb 0.09 in2.3 mm 0.48 in12.2 mm 1.03 in26.2 mm
03:35 PM 64.1°F17.8°C 57.1°F13.9°C 78% 2.6 mph NE4.2 kmh NE 11.0 mph17.7 kmh 29.66 in1004.4 mb 0.09 in2.3 mm 0.00 in0.0 mm 1.03 in26.2 mm
03:40 PM 64.0°F17.8°C 56.6°F13.7°C 77% 2.1 mph WSW3.4 kmh WSW 8.0 mph12.9 kmh 29.66 in1004.4 mb 0.09 in2.3 mm 0.00 in0.0 mm 1.03 in26.2 mm
03:45 PM 64.1°F17.8°C 56.7°F13.7°C 77% 2.3 mph SW3.7 kmh SW 12.0 mph19.3 kmh 29.65 in1004.1 mb 0.09 in2.3 mm 0.00 in0.0 mm 1.03 in26.2 mm
03:50 PM 64.7°F18.2°C 57.0°F13.9°C 76% 2.8 mph SW4.5 kmh SW 12.0 mph19.3 kmh 29.65 in1004.1 mb 0.09 in2.3 mm 0.00 in0.0 mm 1.03 in26.2 mm
03:55 PM 65.2°F18.4°C 57.1°F13.9°C 75% 3.5 mph SW5.6 kmh SW 11.0 mph17.7 kmh 29.65 in1004.1 mb 0.09 in2.3 mm 0.00 in0.0 mm 1.03 in26.2 mm
04:00 PM 65.6°F18.7°C 57.1°F13.9°C 74% 3.3 mph SW5.3 kmh SW 9.0 mph14.5 kmh 29.65 in1004.1 mb 0.09 in2.3 mm 0.00 in0.0 mm 1.03 in26.2 mm
04:05 PM 66.2°F19.0°C 57.3°F14.1°C 73% 2.4 mph SW3.9 kmh SW 9.0 mph14.5 kmh 29.65 in1004.1 mb 0.09 in2.3 mm 0.00 in0.0 mm 1.03 in26.2 mm
04:10 PM 66.8°F19.3°C 57.9°F14.4°C 73% 2.0 mph SW3.2 kmh SW 7.0 mph11.3 kmh 29.65 in1004.1 mb 0.09 in2.3 mm 0.00 in0.0 mm 1.03 in26.2 mm
04:15 PM 67.2°F19.6°C 57.5°F14.2°C 71% 2.0 mph SW3.2 kmh SW 6.0 mph9.7 kmh 29.65 in1004.1 mb 0.09 in2.3 mm 0.00 in0.0 mm 1.03 in26.2 mm
04:20 PM 67.3°F19.6°C 57.2°F14.0°C 70% 2.0 mph WNW3.2 kmh WNW 6.0 mph9.7 kmh 29.66 in1004.4 mb 0.08 in2.0 mm 0.00 in0.0 mm 1.03 in26.2 mm
04:25 PM 66.8°F19.3°C 57.1°F13.9°C 71% 1.6 mph W2.6 kmh W 4.0 mph6.4 kmh 29.67 in1004.7 mb 0.03 in0.8 mm 0.00 in0.0 mm 1.03 in26.2 mm
04:30 PM 66.7°F19.3°C 57.0°F13.9°C 71% 1.0 mph SW1.6 kmh SW 4.0 mph6.4 kmh 29.67 in1004.7 mb 0.00 in0.0 mm 0.00 in0.0 mm 1.03 in26.2 mm
04:35 PM 66.4°F19.1°C 57.5°F14.2°C 73% 0.4 mph NNE0.6 kmh NNE 4.0 mph6.4 kmh 29.68 in1005.1 mb 0.00 in0.0 mm 0.00 in0.0 mm 1.03 in26.2 mm
04:40 PM 66.1°F18.9°C 58.7°F14.8°C 77% 0.5 mph NNE0.8 kmh NNE 4.0 mph6.4 kmh 29.68 in1005.1 mb 0.00 in0.0 mm 0.00 in0.0 mm 1.03 in26.2 mm
04:45 PM 65.7°F18.7°C 58.3°F14.6°C 77% 1.0 mph NE1.6 kmh NE 6.0 mph9.7 kmh 29.68 in1005.1 mb 0.00 in0.0 mm 0.00 in0.0 mm 1.03 in26.2 mm
04:50 PM 65.0°F18.3°C 58.0°F14.4°C 78% 1.2 mph NE1.9 kmh NE 6.0 mph9.7 kmh 29.68 in1005.1 mb 0.00 in0.0 mm 0.00 in0.0 mm 1.03 in26.2 mm
04:55 PM 64.8°F18.2°C 58.1°F14.5°C 79% 1.9 mph NE3.1 kmh NE 4.0 mph6.4 kmh 29.68 in1005.1 mb 0.00 in0.0 mm 0.00 in0.0 mm 1.03 in26.2 mm
05:00 PM 64.3°F17.9°C 57.6°F14.2°C 79% 2.6 mph NE4.2 kmh NE 4.0 mph6.4 kmh 29.68 in1005.1 mb 0.00 in0.0 mm 0.00 in0.0 mm 1.03 in26.2 mm
05:05 PM 64.0°F17.8°C 57.4°F14.1°C 79% 2.3 mph NE3.7 kmh NE 4.0 mph6.4 kmh 29.68 in1005.1 mb 0.00 in0.0 mm 0.00 in0.0 mm 1.03 in26.2 mm
05:10 PM 63.8°F17.7°C 57.5°F14.2°C 80% 1.6 mph NE2.6 kmh NE 6.0 mph9.7 kmh 29.68 in1005.1 mb 0.00 in0.0 mm 0.00 in0.0 mm 1.03 in26.2 mm
05:15 PM 63.6°F17.6°C 57.7°F14.3°C 81% 1.8 mph NE2.9 kmh NE 6.0 mph9.7 kmh 29.68 in1005.1 mb 0.00 in0.0 mm 0.00 in0.0 mm 1.03 in26.2 mm
05:20 PM 63.4°F17.4°C 57.5°F14.2°C 81% 2.6 mph NE4.2 kmh NE 6.0 mph9.7 kmh 29.68 in1005.1 mb 0.00 in0.0 mm 0.00 in0.0 mm 1.03 in26.2 mm
05:25 PM 63.3°F17.4°C 57.4°F14.1°C 81% 2.6 mph NE4.2 kmh NE 5.0 mph8.0 kmh 29.68 in1005.1 mb 0.00 in0.0 mm 0.00 in0.0 mm 1.03 in26.2 mm
05:30 PM 63.0°F17.2°C 57.4°F14.1°C 82% 2.1 mph NE3.4 kmh NE 4.0 mph6.4 kmh 29.68 in1005.1 mb 0.00 in0.0 mm 0.00 in0.0 mm 1.03 in26.2 mm
05:35 PM 62.8°F17.1°C 57.6°F14.2°C 83% 2.2 mph NE3.5 kmh NE 5.0 mph8.0 kmh 29.69 in1005.4 mb 0.00 in0.0 mm 0.00 in0.0 mm 1.03 in26.2 mm
05:40 PM 62.7°F17.1°C 57.5°F14.2°C 83% 2.7 mph NE4.3 kmh NE 5.0 mph8.0 kmh 29.69 in1005.4 mb 0.00 in0.0 mm 0.00 in0.0 mm 1.03 in26.2 mm
05:45 PM 62.9°F17.2°C 57.3°F14.1°C 82% 2.6 mph NE4.2 kmh NE 4.0 mph6.4 kmh 29.69 in1005.4 mb 0.00 in0.0 mm 0.00 in0.0 mm 1.03 in26.2 mm
05:50 PM 62.8°F17.1°C 57.2°F14.0°C 82% 2.1 mph NE3.4 kmh NE 4.0 mph6.4 kmh 29.70 in1005.8 mb 0.00 in0.0 mm 0.00 in0.0 mm 1.03 in26.2 mm
05:55 PM 62.6°F17.0°C 57.4°F14.1°C 83% 2.3 mph NE3.7 kmh NE 5.0 mph8.0 kmh 29.70 in1005.8 mb 0.00 in0.0 mm 0.00 in0.0 mm 1.03 in26.2 mm
06:00 PM 62.5°F16.9°C 57.3°F14.1°C 83% 2.4 mph NE3.9 kmh NE 5.0 mph8.0 kmh 29.70 in1005.8 mb 0.00 in0.0 mm 0.00 in0.0 mm 1.03 in26.2 mm
06:05 PM 62.3°F16.8°C 56.7°F13.7°C 82% 2.1 mph NE3.4 kmh NE 8.0 mph12.9 kmh 29.70 in1005.8 mb 0.00 in0.0 mm 0.00 in0.0 mm 1.03 in26.2 mm
06:10 PM 62.1°F16.7°C 56.2°F13.4°C 81% 2.8 mph NE4.5 kmh NE 9.0 mph14.5 kmh 29.70 in1005.8 mb 0.00 in0.0 mm 0.00 in0.0 mm 1.03 in26.2 mm
06:15 PM 62.2°F16.8°C 56.3°F13.5°C 81% 3.7 mph NE6.0 kmh NE 9.0 mph14.5 kmh 29.71 in1006.1 mb 0.00 in0.0 mm 0.00 in0.0 mm 1.03 in26.2 mm
06:20 PM 62.2°F16.8°C 56.3°F13.5°C 81% 2.8 mph NE4.5 kmh NE 9.0 mph14.5 kmh 29.71 in1006.1 mb 0.00 in0.0 mm 0.00 in0.0 mm 1.03 in26.2 mm
06:25 PM 62.1°F16.7°C 54.8°F12.7°C 77% 2.2 mph NE3.5 kmh NE 15.0 mph24.1 kmh 29.70 in1005.8 mb 0.00 in0.0 mm 0.00 in0.0 mm 1.03 in26.2 mm
06:30 PM 62.1°F16.7°C 54.1°F12.3°C 75% 4.4 mph NE7.1 kmh NE 15.0 mph24.1 kmh 29.70 in1005.8 mb 0.00 in0.0 mm 0.00 in0.0 mm 1.03 in26.2 mm
06:35 PM 61.9°F16.6°C 53.5°F11.9°C 74% 6.9 mph NE11.1 kmh NE 16.0 mph25.7 kmh 29.70 in1005.8 mb 0.00 in0.0 mm 0.00 in0.0 mm 1.03 in26.2 mm
06:40 PM 61.7°F16.5°C 53.0°F11.7°C 73% 8.3 mph NE13.4 kmh NE 16.0 mph25.7 kmh 29.70 in1005.8 mb 0.00 in0.0 mm 0.00 in0.0 mm 1.03 in26.2 mm
06:45 PM 61.6°F16.4°C 52.9°F11.6°C 73% 8.9 mph NE14.3 kmh NE 18.0 mph29.0 kmh 29.70 in1005.8 mb 0.00 in0.0 mm 0.00 in0.0 mm 1.03 in26.2 mm
06:50 PM 61.3°F16.3°C 52.6°F11.4°C 73% 8.7 mph ENE14.0 kmh ENE 18.0 mph29.0 kmh 29.70 in1005.8 mb 0.00 in0.0 mm 0.00 in0.0 mm 1.03 in26.2 mm
06:55 PM 61.1°F16.2°C 52.7°F11.5°C 74% 8.2 mph NE13.2 kmh NE 16.0 mph25.7 kmh 29.70 in1005.8 mb 0.00 in0.0 mm 0.00 in0.0 mm 1.03 in26.2 mm
07:00 PM 60.9°F16.1°C 52.6°F11.4°C 74% 8.3 mph NE13.4 kmh NE 21.0 mph33.8 kmh 29.70 in1005.8 mb 0.00 in0.0 mm 0.00 in0.0 mm 1.03 in26.2 mm
07:05 PM 60.8°F16.0°C 52.8°F11.6°C 75% 8.8 mph NE14.2 kmh NE 21.0 mph33.8 kmh 29.71 in1006.1 mb 0.00 in0.0 mm 0.00 in0.0 mm 1.03 in26.2 mm
07:10 PM 60.7°F15.9°C 52.4°F11.3°C 74% 9.1 mph NE14.6 kmh NE 17.0 mph27.4 kmh 29.71 in1006.1 mb 0.00 in0.0 mm 0.00 in0.0 mm 1.03 in26.2 mm
07:15 PM 60.7°F15.9°C 52.0°F11.1°C 73% 8.7 mph NE14.0 kmh NE 13.0 mph20.9 kmh 29.72 in1006.4 mb 0.00 in0.0 mm 0.00 in0.0 mm 1.03 in26.2 mm
07:20 PM 60.8°F16.0°C 51.7°F10.9°C 72% 7.6 mph NE12.2 kmh NE 14.0 mph22.5 kmh 29.72 in1006.4 mb 0.00 in0.0 mm 0.00 in0.0 mm 1.03 in26.2 mm
07:25 PM 60.6°F15.9°C 51.5°F10.8°C 72% 6.6 mph NE10.6 kmh NE 14.0 mph22.5 kmh 29.73 in1006.8 mb 0.00 in0.0 mm 0.00 in0.0 mm 1.03 in26.2 mm
07:30 PM 60.5°F15.8°C 51.4°F10.8°C 72% 5.7 mph NE9.2 kmh NE 10.0 mph16.1 kmh 29.73 in1006.8 mb 0.00 in0.0 mm 0.00 in0.0 mm 1.03 in26.2 mm
07:35 PM 60.3°F15.7°C 51.2°F10.7°C 72% 4.8 mph NE7.7 kmh NE 11.0 mph17.7 kmh 29.73 in1006.8 mb 0.00 in0.0 mm 0.00 in0.0 mm 1.03 in26.2 mm
07:40 PM 60.2°F15.7°C 51.1°F10.6°C 72% 4.8 mph NE7.7 kmh NE 12.0 mph19.3 kmh 29.73 in1006.8 mb 0.00 in0.0 mm 0.00 in0.0 mm 1.03 in26.2 mm
07:45 PM 60.1°F15.6°C 51.0°F10.6°C 72% 5.6 mph NE9.0 kmh NE 12.0 mph19.3 kmh 29.73 in1006.8 mb 0.00 in0.0 mm 0.00 in0.0 mm 1.03 in26.2 mm
07:50 PM 60.0°F15.6°C 50.9°F10.5°C 72% 5.8 mph NE9.3 kmh NE 12.0 mph19.3 kmh 29.73 in1006.8 mb 0.00 in0.0 mm 0.00 in0.0 mm 1.03 in26.2 mm
07:55 PM 60.0°F15.6°C 50.6°F10.3°C 71% 5.1 mph NE8.2 kmh NE 8.0 mph12.9 kmh 29.73 in1006.8 mb 0.00 in0.0 mm 0.00 in0.0 mm 1.03 in26.2 mm
08:00 PM 59.9°F15.5°C 50.5°F10.3°C 71% 4.3 mph NE6.9 kmh NE 8.0 mph12.9 kmh 29.73 in1006.8 mb 0.00 in0.0 mm 0.00 in0.0 mm 1.03 in26.2 mm
08:05 PM 59.9°F15.5°C 50.5°F10.3°C 71% 4.5 mph NE7.2 kmh NE 10.0 mph16.1 kmh 29.74 in1007.1 mb 0.00 in0.0 mm 0.00 in0.0 mm 1.03 in26.2 mm
08:10 PM 59.9°F15.5°C 50.1°F10.1°C 70% 5.4 mph NE8.7 kmh NE 14.0 mph22.5 kmh 29.73 in1006.8 mb 0.00 in0.0 mm 0.00 in0.0 mm 1.03 in26.2 mm
08:15 PM 59.8°F15.4°C 50.0°F10.0°C 70% 5.9 mph NE9.5 kmh NE 14.0 mph22.5 kmh 29.73 in1006.8 mb 0.00 in0.0 mm 0.00 in0.0 mm 1.03 in26.2 mm
08:20 PM 59.7°F15.4°C 49.9°F9.9°C 70% 6.5 mph NE10.5 kmh NE 13.0 mph20.9 kmh 29.74 in1007.1 mb 0.00 in0.0 mm 0.00 in0.0 mm 1.03 in26.2 mm
08:25 PM 59.7°F15.4°C 49.9°F9.9°C 70% 7.0 mph NE11.3 kmh NE 13.0 mph20.9 kmh 29.74 in1007.1 mb 0.00 in0.0 mm 0.00 in0.0 mm 1.03 in26.2 mm
08:30 PM 59.7°F15.4°C 49.5°F9.7°C 69% 7.3 mph NE11.7 kmh NE 17.0 mph27.4 kmh 29.73 in1006.8 mb 0.00 in0.0 mm 0.00 in0.0 mm 1.03 in26.2 mm
08:35 PM 59.8°F15.4°C 49.6°F9.8°C 69% 8.2 mph NE13.2 kmh NE 19.0 mph30.6 kmh 29.73 in1006.8 mb 0.00 in0.0 mm 0.00 in0.0 mm 1.03 in26.2 mm
08:40 PM 59.8°F15.4°C 49.6°F9.8°C 69% 9.5 mph NE15.3 kmh NE 19.0 mph30.6 kmh 29.73 in1006.8 mb 0.00 in0.0 mm 0.00 in0.0 mm 1.03 in26.2 mm
08:45 PM 59.9°F15.5°C 49.7°F9.8°C 69% 10.2 mph NE16.4 kmh NE 18.0 mph29.0 kmh 29.74 in1007.1 mb 0.00 in0.0 mm 0.00 in0.0 mm 1.03 in26.2 mm
08:50 PM 59.9°F15.5°C 49.3°F9.6°C 68% 10.4 mph NE16.7 kmh NE 18.0 mph29.0 kmh 29.74 in1007.1 mb 0.00 in0.0 mm 0.00 in0.0 mm 1.03 in26.2 mm
08:55 PM 59.9°F15.5°C 49.3°F9.6°C 68% 10.6 mph NE17.1 kmh NE 20.0 mph32.2 kmh 29.74 in1007.1 mb 0.00 in0.0 mm 0.00 in0.0 mm 1.03 in26.2 mm
09:00 PM 59.9°F15.5°C 49.7°F9.8°C 69% 10.6 mph NE17.1 kmh NE 21.0 mph33.8 kmh 29.75 in1007.5 mb 0.00 in0.0 mm 0.00 in0.0 mm 1.03 in26.2 mm
09:05 PM 59.8°F15.4°C 49.6°F9.8°C 69% 10.3 mph NE16.6 kmh NE 21.0 mph33.8 kmh 29.75 in1007.5 mb 0.00 in0.0 mm 0.00 in0.0 mm 1.03 in26.2 mm
09:10 PM 59.8°F15.4°C 49.6°F9.8°C 69% 9.6 mph NE15.4 kmh NE 20.0 mph32.2 kmh 29.75 in1007.5 mb 0.00 in0.0 mm 0.00 in0.0 mm 1.03 in26.2 mm
09:15 PM 59.8°F15.4°C 49.2°F9.6°C 68% 9.5 mph NE15.3 kmh NE 20.0 mph32.2 kmh 29.75 in1007.5 mb 0.00 in0.0 mm 0.00 in0.0 mm 1.03 in26.2 mm
09:20 PM 59.7°F15.4°C 49.5°F9.7°C 69% 9.8 mph NE15.8 kmh NE 20.0 mph32.2 kmh 29.75 in1007.5 mb 0.00 in0.0 mm 0.00 in0.0 mm 1.03 in26.2 mm
09:25 PM 59.6°F15.3°C 49.4°F9.7°C 69% 9.6 mph NE15.4 kmh NE 17.0 mph27.4 kmh 29.75 in1007.5 mb 0.00 in0.0 mm 0.00 in0.0 mm 1.03 in26.2 mm
09:30 PM 59.5°F15.3°C 49.3°F9.6°C 69% 9.8 mph NE15.8 kmh NE 21.0 mph33.8 kmh 29.75 in1007.5 mb 0.00 in0.0 mm 0.00 in0.0 mm 1.03 in26.2 mm
09:35 PM 59.5°F15.3°C 49.3°F9.6°C 69% 11.2 mph NE18.0 kmh NE 24.0 mph38.6 kmh 29.75 in1007.5 mb 0.00 in0.0 mm 0.00 in0.0 mm 1.03 in26.2 mm
09:40 PM 59.4°F15.2°C 49.6°F9.8°C 70% 12.8 mph NE20.6 kmh NE 24.0 mph38.6 kmh 29.75 in1007.5 mb 0.00 in0.0 mm 0.00 in0.0 mm 1.03 in26.2 mm
09:45 PM 59.3°F15.2°C 49.5°F9.7°C 70% 13.0 mph NE20.9 kmh NE 21.0 mph33.8 kmh 29.75 in1007.5 mb 0.00 in0.0 mm 0.00 in0.0 mm 1.03 in26.2 mm
09:50 PM 59.3°F15.2°C 49.1°F9.5°C 69% 11.8 mph NE19.0 kmh NE 24.0 mph38.6 kmh 29.75 in1007.5 mb 0.00 in0.0 mm 0.00 in0.0 mm 1.03 in26.2 mm
09:55 PM 59.3°F15.2°C 49.1°F9.5°C 69% 11.5 mph NE18.5 kmh NE 25.0 mph40.2 kmh 29.75 in1007.5 mb 0.00 in0.0 mm 0.00 in0.0 mm 1.03 in26.2 mm
10:00 PM 59.3°F15.2°C 49.1°F9.5°C 69% 12.4 mph NE20.0 kmh NE 25.0 mph40.2 kmh 29.75 in1007.5 mb 0.00 in0.0 mm 0.00 in0.0 mm 1.03 in26.2 mm
10:05 PM 59.4°F15.2°C 49.2°F9.6°C 69% 12.4 mph NE20.0 kmh NE 25.0 mph40.2 kmh 29.75 in1007.5 mb 0.00 in0.0 mm 0.00 in0.0 mm 1.03 in26.2 mm
10:10 PM 59.3°F15.2°C 49.5°F9.7°C 70% 12.1 mph NE19.5 kmh NE 25.0 mph40.2 kmh 29.76 in1007.8 mb 0.00 in0.0 mm 0.00 in0.0 mm 1.03 in26.2 mm
10:15 PM 59.3°F15.2°C 49.1°F9.5°C 69% 12.1 mph NE19.5 kmh NE 22.0 mph35.4 kmh 29.76 in1007.8 mb 0.00 in0.0 mm 0.00 in0.0 mm 1.03 in26.2 mm
10:20 PM 59.4°F15.2°C 49.2°F9.6°C 69% 12.0 mph NE19.3 kmh NE 22.0 mph35.4 kmh 29.76 in1007.8 mb 0.00 in0.0 mm 0.00 in0.0 mm 1.03 in26.2 mm
10:25 PM 59.3°F15.2°C 49.5°F9.7°C 70% 11.8 mph NE19.0 kmh NE 21.0 mph33.8 kmh 29.76 in1007.8 mb 0.00 in0.0 mm 0.00 in0.0 mm 1.03 in26.2 mm
10:30 PM 59.3°F15.2°C 49.5°F9.7°C 70% 11.7 mph NE18.8 kmh NE 21.0 mph33.8 kmh 29.76 in1007.8 mb 0.00 in0.0 mm 0.00 in0.0 mm 1.03 in26.2 mm
10:35 PM 59.2°F15.1°C 49.4°F9.7°C 70% 11.7 mph NE18.8 kmh NE 21.0 mph33.8 kmh 29.76 in1007.8 mb 0.00 in0.0 mm 0.00 in0.0 mm 1.03 in26.2 mm
10:40 PM 59.1°F15.1°C 49.7°F9.8°C 71% 11.4 mph NE18.3 kmh NE 22.0 mph35.4 kmh 29.76 in1007.8 mb 0.00 in0.0 mm 0.00 in0.0 mm 1.03 in26.2 mm
10:45 PM 59.0°F15.0°C 49.6°F9.8°C 71% 11.5 mph NE18.5 kmh NE 22.0 mph35.4 kmh 29.76 in1007.8 mb 0.00 in0.0 mm 0.00 in0.0 mm 1.03 in26.2 mm
10:50 PM 58.9°F14.9°C 49.9°F9.9°C 72% 11.7 mph NE18.8 kmh NE 26.0 mph41.8 kmh 29.76 in1007.8 mb 0.00 in0.0 mm 0.00 in0.0 mm 1.03 in26.2 mm
10:55 PM 58.9°F14.9°C 49.9°F9.9°C 72% 11.4 mph NE18.3 kmh NE 26.0 mph41.8 kmh 29.76 in1007.8 mb 0.00 in0.0 mm 0.00 in0.0 mm 1.03 in26.2 mm
11:00 PM 58.9°F14.9°C 49.9°F9.9°C 72% 12.1 mph NE19.5 kmh NE 25.0 mph40.2 kmh 29.76 in1007.8 mb 0.00 in0.0 mm 0.00 in0.0 mm 0.81 in20.6 mm
11:05 PM 58.8°F14.9°C 49.8°F9.9°C 72% 13.5 mph NE21.7 kmh NE 25.0 mph40.2 kmh 29.76 in1007.8 mb 0.00 in0.0 mm 0.00 in0.0 mm 0.81 in20.6 mm
11:10 PM 58.7°F14.8°C 50.1°F10.1°C 73% 13.8 mph NE22.2 kmh NE 24.0 mph38.6 kmh 29.76 in1007.8 mb 0.00 in0.0 mm 0.00 in0.0 mm 0.81 in20.6 mm
11:15 PM 58.5°F14.7°C 50.2°F10.1°C 74% 13.1 mph NE21.1 kmh NE 22.0 mph35.4 kmh 29.76 in1007.8 mb 0.00 in0.0 mm 0.00 in0.0 mm 0.81 in20.6 mm
11:20 PM 58.4°F14.7°C 50.1°F10.1°C 74% 13.0 mph NE20.9 kmh NE 26.0 mph41.8 kmh 29.75 in1007.5 mb 0.00 in0.0 mm 0.00 in0.0 mm 0.81 in20.6 mm
11:25 PM 58.4°F14.7°C 50.1°F10.1°C 74% 14.5 mph NE23.3 kmh NE 26.0 mph41.8 kmh 29.75 in1007.5 mb 0.00 in0.0 mm 0.00 in0.0 mm 0.81 in20.6 mm
11:30 PM 58.4°F14.7°C 50.1°F10.1°C 74% 16.0 mph NE25.7 kmh NE 26.0 mph41.8 kmh 29.75 in1007.5 mb 0.00 in0.0 mm 0.00 in0.0 mm 0.81 in20.6 mm
11:35 PM 58.3°F14.6°C 50.0°F10.0°C 74% 15.9 mph NE25.6 kmh NE 26.0 mph41.8 kmh 29.75 in1007.5 mb 0.00 in0.0 mm 0.00 in0.0 mm 0.81 in20.6 mm
11:40 PM 58.2°F14.6°C 50.3°F10.2°C 75% 15.2 mph NE24.5 kmh NE 29.0 mph46.7 kmh 29.75 in1007.5 mb 0.00 in0.0 mm 0.00 in0.0 mm 0.81 in20.6 mm
11:45 PM 58.0°F14.4°C 50.1°F10.1°C 75% 15.6 mph NE25.1 kmh NE 29.0 mph46.7 kmh 29.75 in1007.5 mb 0.00 in0.0 mm 0.00 in0.0 mm 0.81 in20.6 mm
11:50 PM 58.0°F14.4°C 50.1°F10.1°C 75% 16.5 mph NE26.6 kmh NE 27.0 mph43.5 kmh 29.75 in1007.5 mb 0.00 in0.0 mm 0.00 in0.0 mm 0.81 in20.6 mm
11:55 PM 58.0°F14.4°C 50.1°F10.1°C 75% 17.0 mph NE27.4 kmh NE 33.0 mph53.1 kmh 29.76 in1007.8 mb 0.00 in0.0 mm 0.00 in0.0 mm 0.81 in20.6 mm